This is the latest recevied weather packets stored in our database for station/object IZ5MJO-13. If no packets are shown the sender has not sent any weather packets the latest 10 day(s).
| Time | Temp. | Humidity | Pressure | Rain* | Wind** | Luminosity | Snow |
|---|---|---|---|---|---|---|---|
| 1778097836 | 11.11° C | 72% | 1002.6 hPa | - | - | - | - |
| 1778097541 | 11.11° C | 72% | 1002.6 hPa | - | - | - | - |
| 1778096758 | 11.11° C | 71% | 1002.5 hPa | - | - | - | - |
| 1778096640 | 11.11° C | 71% | 1002.5 hPa | - | - | - | - |
| 1778096057 | 11.11° C | 73% | 1002.4 hPa | - | - | - | - |
| 1778095740 | 11.11° C | 73% | 1002.4 hPa | - | - | - | - |
| 1778094936 | 11.11° C | 73% | 1002.2 hPa | - | - | - | - |
| 1778094840 | 11.11° C | 73% | 1002.2 hPa | - | - | - | - |
| 1778094162 | 12.22° C | 71% | 1002 hPa | - | - | - | - |
| 1778094066 | 12.78° C | 74% | 1001.9 hPa | - | - | - | - |
| 1778093939 | 12.22° C | 71% | 1002 hPa | - | - | - | - |
| 1778093704 | 12.22° C | 71% | 1001.6 hPa | - | - | - | - |
| 1778093484 | 12.22° C | 73% | 1001.5 hPa | - | - | - | - |
| 1778093383 | 12.22° C | 75% | 1001.2 hPa | - | - | - | - |
| 1778093192 | 12.78° C | 74% | 1001.3 hPa | - | - | - | - |
| 1778093185 | 12.78° C | 71% | 1001.3 hPa | - | - | - | - |
| 1778093134 | 12.78° C | 71% | 1001.1 hPa | - | - | - | - |
| 1778093044 | 12.78° C | 71% | 1001.1 hPa | - | - | - | - |
| 1778093039 | 12.78° C | 74% | 1001.9 hPa | - | - | - | - |
| 1778092828 | 13.33° C | 68% | 1001.1 hPa | - | - | - | - |
| 1778092728 | 15° C | 66% | 1001 hPa | - | - | - | - |
| 1778092575 | 16.11° C | 63% | 1000.9 hPa | - | - | - | - |
| 1778092361 | 16.67° C | 62% | 1000.8 hPa | - | - | - | - |
| 1778092139 | 12.22° C | 71% | 1001.6 hPa | - | - | - | - |
| 1778092090 | 17.22° C | 60% | 1000.7 hPa | - | - | - | - |
* Rain since midnight (hover to see other rain measurements)
** Current wind speed in m/s (hover to see current wind gust speed)